createdAt,value
2022-09-03T00:01:01.834Z,55.29
2022-09-03T00:03:40.037Z,54.53
2022-09-03T00:06:21.161Z,55.31
2022-09-03T00:08:53.769Z,55.67
2022-09-03T00:11:23.804Z,54.41
2022-09-03T00:14:03.282Z,55.60
2022-09-03T00:16:50.876Z,54.52
2022-09-03T00:19:23.270Z,55.87
2022-09-03T00:21:55.745Z,55.01
2022-09-03T00:24:27.114Z,54.27
2022-09-03T00:26:59.372Z,55.49
2022-09-03T00:29:49.510Z,55.47
2022-09-03T00:32:22.744Z,55.61
2022-09-03T00:34:56.919Z,55.59
2022-09-03T00:37:28.091Z,54.43
2022-09-03T00:39:59.301Z,55.11
2022-09-03T00:42:49.970Z,55.58
2022-09-03T00:45:34.576Z,55.81
2022-09-03T00:48:12.803Z,55.78
2022-09-03T00:51:00.613Z,54.51
2022-09-03T00:53:33.056Z,56.08
2022-09-03T00:56:22.410Z,56.48
2022-09-03T00:59:01.717Z,55.58
2022-09-03T01:01:37.320Z,54.86
2022-09-03T01:04:31.388Z,57.51
2022-09-03T01:07:16.060Z,55.22
2022-09-03T01:10:19.094Z,56.77
2022-09-03T01:12:51.654Z,57.30
2022-09-03T01:15:27.860Z,56.65
2022-09-03T01:18:12.546Z,56.05
2022-09-03T01:21:06.405Z,57.45
2022-09-03T01:23:41.761Z,56.67
2022-09-03T01:26:38.516Z,56.39
2022-09-03T01:29:35.764Z,56.19
2022-09-03T01:32:10.090Z,56.92
2022-09-03T01:34:40.535Z,56.68
2022-09-03T01:37:24.955Z,56.93
2022-09-03T01:40:03.302Z,56.74
2022-09-03T01:42:44.906Z,57.96
2022-09-03T01:45:29.613Z,57.31
2022-09-03T01:48:34.105Z,57.21
2022-09-03T01:51:12.830Z,57.66
2022-09-03T01:54:21.440Z,59.19
2022-09-03T01:57:35.335Z,58.02
2022-09-03T02:00:00.367Z,59.05
2022-09-03T02:02:30.951Z,58.66
2022-09-03T02:05:09.427Z,57.76
2022-09-03T02:07:41.901Z,59.74
2022-09-03T02:10:17.449Z,59.80
2022-09-03T02:12:55.221Z,60.19
2022-09-03T02:15:26.232Z,60.00
2022-09-03T02:17:57.488Z,58.36
2022-09-03T02:20:28.279Z,59.12
2022-09-03T02:22:59.112Z,58.82
2022-09-03T02:25:34.659Z,59.50
2022-09-03T02:28:11.213Z,58.99
2022-09-03T02:30:37.811Z,59.01
2022-09-03T02:33:07.660Z,61.05
2022-09-03T02:35:37.251Z,61.39
2022-09-03T02:38:15.592Z,61.23
2022-09-03T02:40:45.871Z,60.26
2022-09-03T02:43:18.608Z,60.73
2022-09-03T02:45:49.856Z,60.27
2022-09-03T02:48:21.951Z,61.70
2022-09-03T02:50:51.877Z,60.89
2022-09-03T02:53:21.770Z,61.17
2022-09-03T02:55:51.209Z,61.33
2022-09-03T02:58:21.171Z,60.71
2022-09-03T03:00:50.849Z,61.94
2022-09-03T03:03:20.506Z,62.01
2022-09-03T03:05:51.916Z,60.93
2022-09-03T03:08:23.988Z,61.93
2022-09-03T03:10:54.150Z,61.52
2022-09-03T03:13:24.003Z,61.03
2022-09-03T03:15:55.055Z,61.57
2022-09-03T03:18:24.941Z,61.36
2022-09-03T03:20:54.568Z,61.58
2022-09-03T03:23:23.849Z,61.47
2022-09-03T03:25:53.095Z,61.05
2022-09-03T03:28:22.535Z,60.91
2022-09-03T03:30:53.061Z,60.71
2022-09-03T03:33:22.628Z,61.74
2022-09-03T03:35:53.609Z,60.55
2022-09-03T03:38:23.022Z,60.65
2022-09-03T03:40:52.310Z,60.57
2022-09-03T03:43:21.683Z,61.48
2022-09-03T03:46:00.846Z,62.03
2022-09-03T03:48:30.153Z,61.04
2022-09-03T03:51:05.756Z,61.03
2022-09-03T03:53:36.694Z,60.57
2022-09-03T03:56:09.726Z,60.29
2022-09-03T03:58:41.734Z,63.93
2022-09-03T04:01:14.296Z,61.67
2022-09-03T04:03:43.078Z,62.37
2022-09-03T04:06:14.068Z,62.38
2022-09-03T04:08:45.832Z,62.77
2022-09-03T04:11:18.165Z,62.65
2022-09-03T04:13:48.345Z,62.44
2022-09-03T04:16:20.816Z,62.09
2022-09-03T04:18:52.039Z,61.73
2022-09-03T04:21:24.432Z,62.27
2022-09-03T04:23:55.525Z,62.45
2022-09-03T04:26:29.611Z,62.71
2022-09-03T04:29:10.184Z,62.91
2022-09-03T04:31:41.717Z,63.11
2022-09-03T04:34:11.210Z,62.54
2022-09-03T04:36:40.545Z,63.23
2022-09-03T04:39:09.818Z,63.63
2022-09-03T04:41:39.469Z,64.12
2022-09-03T04:44:08.755Z,63.79
2022-09-03T04:46:39.371Z,63.79
2022-09-03T04:49:09.868Z,62.24
2022-09-03T04:51:39.272Z,62.60
2022-09-03T04:54:10.395Z,62.17
2022-09-03T04:56:40.737Z,61.75
2022-09-03T04:59:11.214Z,63.18
2022-09-03T05:01:41.575Z,63.85
2022-09-03T05:04:11.070Z,63.16
2022-09-03T05:06:40.391Z,63.16
2022-09-03T05:09:09.801Z,62.77
2022-09-03T05:11:39.094Z,63.18
2022-09-03T05:14:10.129Z,63.09
2022-09-03T05:16:39.896Z,62.18
2022-09-03T05:19:09.705Z,62.53
2022-09-03T05:21:40.470Z,62.16
2022-09-03T05:24:11.450Z,63.59
2022-09-03T05:26:41.428Z,61.91
2022-09-03T05:29:10.844Z,61.80
2022-09-03T05:31:40.659Z,61.85
2022-09-03T05:34:16.605Z,61.41
2022-09-03T05:36:41.449Z,61.37
2022-09-03T05:39:10.776Z,60.84
2022-09-03T05:41:40.394Z,60.92
2022-09-03T05:44:10.092Z,60.32
2022-09-03T05:46:39.554Z,59.28
2022-09-03T05:49:09.210Z,59.10
2022-09-03T05:51:42.709Z,58.97
2022-09-03T05:54:12.328Z,58.42
2022-09-03T05:56:42.822Z,57.09
2022-09-03T05:59:13.892Z,55.55
2022-09-03T06:01:50.978Z,52.25
2022-09-03T06:04:17.413Z,49.68
2022-09-03T06:06:48.593Z,46.84
2022-09-03T06:09:20.478Z,43.61
2022-09-03T06:11:50.807Z,41.28
2022-09-03T06:14:23.836Z,42.03
2022-09-03T06:16:53.466Z,41.23
2022-09-03T06:19:23.121Z,41.68
2022-09-03T06:21:52.479Z,44.70
2022-09-03T06:24:26.268Z,47.27
2022-09-03T06:26:56.132Z,49.00
2022-09-03T06:29:25.531Z,51.48
2022-09-03T06:31:55.993Z,52.47
2022-09-03T06:34:27.266Z,52.81
2022-09-03T06:36:57.578Z,53.42
2022-09-03T06:39:27.217Z,53.65
2022-09-03T06:41:56.785Z,54.77
2022-09-03T06:44:27.769Z,54.56
2022-09-03T06:46:58.853Z,53.89
2022-09-03T06:49:28.214Z,54.01
2022-09-03T06:51:57.727Z,55.69
2022-09-03T06:54:26.985Z,54.14
2022-09-03T06:56:56.902Z,54.20
2022-09-03T06:59:26.835Z,54.79
2022-09-03T07:01:58.276Z,54.05
2022-09-03T07:04:27.586Z,54.12
2022-09-03T07:06:58.725Z,54.76
2022-09-03T07:09:28.077Z,55.02
2022-09-03T07:11:57.449Z,54.65
2022-09-03T07:14:26.792Z,55.27
2022-09-03T07:16:56.755Z,55.66
2022-09-03T07:19:26.015Z,56.03
2022-09-03T07:21:55.297Z,57.03
2022-09-03T07:24:25.027Z,55.85
2022-09-03T07:26:55.036Z,56.01
2022-09-03T07:29:24.586Z,56.20
2022-09-03T07:31:53.924Z,55.79
2022-09-03T07:34:27.262Z,56.12
2022-09-03T07:36:56.664Z,55.71
2022-09-03T07:39:26.023Z,55.05
2022-09-03T07:41:55.348Z,55.35
2022-09-03T07:44:25.055Z,54.16
2022-09-03T07:46:54.424Z,53.47
2022-09-03T07:49:23.781Z,52.77
2022-09-03T07:51:55.860Z,52.34
2022-09-03T07:54:27.046Z,51.41
2022-09-03T07:56:57.536Z,51.26
2022-09-03T07:59:26.937Z,51.03
2022-09-03T08:01:56.580Z,50.72
2022-09-03T08:04:26.012Z,51.41
2022-09-03T08:06:57.081Z,50.42
2022-09-03T08:09:26.409Z,51.02
2022-09-03T08:11:55.740Z,51.64
2022-09-03T08:14:25.010Z,52.25
2022-09-03T08:16:54.899Z,50.16
2022-09-03T08:19:24.144Z,50.06
2022-09-03T08:21:53.659Z,49.41
2022-09-03T08:24:24.894Z,48.97
2022-09-03T08:26:54.239Z,48.97
2022-09-03T08:29:24.062Z,47.68
2022-09-03T08:31:54.163Z,47.59
2022-09-03T08:34:24.056Z,48.36
2022-09-03T08:36:54.642Z,47.08
2022-09-03T08:39:23.981Z,48.98
2022-09-03T08:41:56.544Z,47.77
2022-09-03T08:44:39.059Z,46.37
2022-09-03T08:47:26.923Z,46.38
2022-09-03T08:50:02.395Z,47.01
2022-09-03T08:52:34.670Z,46.11
2022-09-03T08:55:18.959Z,46.33
2022-09-03T08:57:57.893Z,45.75
2022-09-03T09:00:30.557Z,45.01
2022-09-03T09:03:31.782Z,46.20
2022-09-03T09:06:38.919Z,44.22
2022-09-03T09:09:14.698Z,45.21
2022-09-03T09:12:11.055Z,44.71
2022-09-03T09:15:08.102Z,44.35
2022-09-03T09:17:51.183Z,43.50
2022-09-03T09:20:26.601Z,43.29
2022-09-03T09:22:59.025Z,42.61
2022-09-03T09:25:27.830Z,43.02
2022-09-03T09:28:24.016Z,40.97
2022-09-03T09:30:55.691Z,41.54
2022-09-03T09:33:25.869Z,39.41
2022-09-03T09:35:55.168Z,39.43
2022-09-03T09:38:38.708Z,36.65
2022-09-03T09:41:20.251Z,34.78
2022-09-03T09:43:51.552Z,32.61
2022-09-03T09:46:27.265Z,29.67
2022-09-03T09:48:58.887Z,28.39
2022-09-03T09:51:32.385Z,26.65
2022-09-03T09:54:07.394Z,25.75
2022-09-03T09:56:36.924Z,25.22
2022-09-03T09:59:11.219Z,24.31
2022-09-03T10:01:45.627Z,25.14
2022-09-03T10:04:32.385Z,25.42
2022-09-03T10:07:07.882Z,25.99
2022-09-03T10:09:37.200Z,24.29
2022-09-03T10:12:15.793Z,25.34
2022-09-03T10:15:00.196Z,24.59
2022-09-03T10:17:47.135Z,24.61
2022-09-03T10:20:31.507Z,25.13
2022-09-03T10:23:16.305Z,24.39
2022-09-03T10:26:09.746Z,22.78
2022-09-03T10:28:41.788Z,23.92
2022-09-03T10:31:27.067Z,25.50
2022-09-03T10:34:14.521Z,26.02
2022-09-03T10:36:52.603Z,28.21
2022-09-03T10:39:42.901Z,29.05
2022-09-03T10:42:37.431Z,26.03
2022-09-03T10:45:24.693Z,25.54
2022-09-03T10:48:05.991Z,25.51
2022-09-03T10:50:48.834Z,23.70
2022-09-03T10:53:49.725Z,23.73
2022-09-03T10:56:22.790Z,22.17
2022-09-03T10:59:11.902Z,24.01
2022-09-03T11:02:05.495Z,22.26
2022-09-03T11:04:47.005Z,22.82
2022-09-03T11:07:19.050Z,24.70
2022-09-03T11:10:08.831Z,22.32
2022-09-03T11:12:41.254Z,22.68
2022-09-03T11:15:16.771Z,24.32
2022-09-03T11:17:52.143Z,24.54
2022-09-03T11:20:23.480Z,22.92
2022-09-03T11:22:55.653Z,24.16
2022-09-03T11:25:28.694Z,25.29
2022-09-03T11:28:11.689Z,22.38
2022-09-03T11:30:53.144Z,24.40
2022-09-03T11:33:25.247Z,23.33
2022-09-03T11:36:01.573Z,23.37
2022-09-03T11:38:34.614Z,21.42
2022-09-03T11:41:07.201Z,21.72
2022-09-03T11:43:37.826Z,23.51
2022-09-03T11:46:16.488Z,22.97
2022-09-03T11:49:00.521Z,23.78
2022-09-03T11:51:33.876Z,22.00
2022-09-03T11:54:09.720Z,22.93
2022-09-03T11:56:39.017Z,22.55
2022-09-03T11:59:17.668Z,22.22
2022-09-03T12:01:55.012Z,22.55
2022-09-03T12:04:28.339Z,23.65
2022-09-03T12:07:23.542Z,23.84
2022-09-03T12:10:13.229Z,23.35
2022-09-03T12:12:54.879Z,23.01
2022-09-03T12:15:27.828Z,22.02
2022-09-03T12:18:19.890Z,24.40
2022-09-03T12:20:55.934Z,23.32
2022-09-03T12:23:44.757Z,25.94
2022-09-03T12:26:16.368Z,24.80
2022-09-03T12:28:48.765Z,27.82
2022-09-03T12:31:24.985Z,24.69
2022-09-03T12:33:58.136Z,24.85
2022-09-03T12:36:30.078Z,24.99
2022-09-03T12:39:18.202Z,25.22
2022-09-03T12:41:33.718Z,25.64
2022-09-03T12:44:03.784Z,25.75
2022-09-03T12:46:35.078Z,26.14
2022-09-03T12:51:53.304Z,25.32
2022-09-03T12:54:17.680Z,24.77
2022-09-03T12:56:49.705Z,24.13
2022-09-03T12:59:20.761Z,24.35
2022-09-03T13:02:01.801Z,25.48
2022-09-03T13:04:35.866Z,23.63
2022-09-03T13:07:08.338Z,24.86
2022-09-03T13:09:39.458Z,24.03
2022-09-03T13:12:10.865Z,23.61
2022-09-03T13:14:44.622Z,23.88
2022-09-03T13:17:38.053Z,24.35
2022-09-03T13:20:30.194Z,25.14
2022-09-03T13:23:09.182Z,26.35
2022-09-03T13:26:06.258Z,25.63
2022-09-03T13:28:58.952Z,25.97
2022-09-03T13:31:34.248Z,25.68
2022-09-03T13:34:12.687Z,26.33
2022-09-03T13:36:53.510Z,25.23
2022-09-03T13:39:55.821Z,26.22
2022-09-03T13:42:33.903Z,26.05
2022-09-03T13:45:08.710Z,25.84
2022-09-03T13:47:42.688Z,27.43
2022-09-03T13:50:23.231Z,27.83
2022-09-03T13:53:01.894Z,27.65
2022-09-03T13:55:51.708Z,26.68
2022-09-03T13:58:24.384Z,26.22
2022-09-03T14:01:07.547Z,27.23
2022-09-03T14:03:48.998Z,28.43
2022-09-03T14:06:32.460Z,28.43
2022-09-03T14:09:30.618Z,27.69
2022-09-03T14:12:08.809Z,27.65
2022-09-03T14:14:55.178Z,27.66
2022-09-03T14:17:51.891Z,27.98
2022-09-03T14:20:36.410Z,27.06
2022-09-03T14:23:35.996Z,26.41
2022-09-03T14:26:07.712Z,28.67
2022-09-03T14:28:39.177Z,28.56
2022-09-03T14:31:28.345Z,27.31
2022-09-03T14:34:00.798Z,26.94
2022-09-03T14:36:33.504Z,27.89
2022-09-03T14:39:08.543Z,27.00
2022-09-03T14:41:56.491Z,29.00
2022-09-03T14:45:03.267Z,28.18
2022-09-03T14:47:58.643Z,28.77
2022-09-03T14:50:58.357Z,27.74
2022-09-03T14:53:37.255Z,28.18
2022-09-03T14:56:24.961Z,28.57
2022-09-03T14:58:58.681Z,28.36
2022-09-03T15:01:39.460Z,28.17
2022-09-03T15:04:19.698Z,27.67
2022-09-03T15:06:52.095Z,28.99
2022-09-03T15:09:33.651Z,28.63
2022-09-03T15:12:06.059Z,29.04
2022-09-03T15:14:44.335Z,29.52
2022-09-03T15:17:33.578Z,29.65
2022-09-03T15:20:24.518Z,29.48
2022-09-03T15:23:14.805Z,29.83
2022-09-03T15:26:10.041Z,29.17
2022-09-03T15:29:16.084Z,29.24
2022-09-03T15:32:12.975Z,29.73
2022-09-03T15:34:59.191Z,28.60
2022-09-03T15:37:31.504Z,27.96
2022-09-03T15:40:10.313Z,29.10
2022-09-03T15:42:39.866Z,29.02
2022-09-03T15:45:24.544Z,29.72
2022-09-03T15:47:57.022Z,29.76
2022-09-03T15:50:35.518Z,31.10
2022-09-03T15:53:08.457Z,30.73
2022-09-03T15:55:43.205Z,32.27
2022-09-03T15:58:24.374Z,33.09
2022-09-03T16:01:14.960Z,32.33
2022-09-03T16:04:20.772Z,32.54
2022-09-03T16:07:05.178Z,30.73
2022-09-03T16:09:57.506Z,30.79
2022-09-03T16:12:29.527Z,30.53
2022-09-03T16:15:23.414Z,31.41
2022-09-03T16:18:12.237Z,30.81
2022-09-03T16:21:00.116Z,30.67
2022-09-03T16:23:35.541Z,31.41
2022-09-03T16:26:08.144Z,32.60
2022-09-03T16:28:52.869Z,31.70
2022-09-03T16:31:58.375Z,32.42
2022-09-03T16:34:54.755Z,32.89
2022-09-03T16:37:44.006Z,34.48
2022-09-03T16:40:35.891Z,34.16
2022-09-03T16:43:41.690Z,32.58
2022-09-03T16:46:17.217Z,32.86
2022-09-03T16:48:58.720Z,34.30
2022-09-03T16:51:37.104Z,35.70
2022-09-03T16:54:19.891Z,35.27
2022-09-03T16:57:07.271Z,34.96
2022-09-03T17:00:10.148Z,35.23
2022-09-03T17:02:49.819Z,35.63
2022-09-03T17:05:37.421Z,35.54
2022-09-03T17:08:22.252Z,36.32
2022-09-03T17:11:22.020Z,37.28
2022-09-03T17:13:54.613Z,37.54
2022-09-03T17:16:33.093Z,37.06
2022-09-03T17:19:20.448Z,37.71
2022-09-03T17:22:17.167Z,37.53
2022-09-03T17:25:01.704Z,38.45
2022-09-03T17:27:50.542Z,38.11
2022-09-03T17:30:24.105Z,38.49
2022-09-03T17:33:01.238Z,38.72
2022-09-03T17:35:54.395Z,39.23
2022-09-03T17:38:45.543Z,38.96
2022-09-03T17:41:52.047Z,40.41
2022-09-03T17:44:51.620Z,42.76
2022-09-03T17:47:32.980Z,43.40
2022-09-03T17:50:11.690Z,42.82
2022-09-03T17:52:43.664Z,44.05
2022-09-03T17:55:39.547Z,43.80
2022-09-03T17:58:23.706Z,44.26
2022-09-03T18:01:14.368Z,45.16
2022-09-03T18:04:04.957Z,45.01
2022-09-03T18:06:47.210Z,46.34
2022-09-03T18:09:38.124Z,46.26
2022-09-03T18:12:16.218Z,46.28
2022-09-03T18:14:56.873Z,46.49
2022-09-03T18:17:38.402Z,46.14
2022-09-03T18:20:27.871Z,46.65
2022-09-03T18:23:24.099Z,47.10
2022-09-03T18:26:16.217Z,48.82
2022-09-03T18:29:12.815Z,48.42
2022-09-03T18:32:00.092Z,48.27
2022-09-03T18:34:52.328Z,48.71
2022-09-03T18:37:45.157Z,48.55
2022-09-03T18:40:42.151Z,50.41
2022-09-03T18:43:53.400Z,50.09
2022-09-03T18:50:13.369Z,47.72
2022-09-03T18:53:07.576Z,48.15
2022-09-03T18:56:15.595Z,47.37
2022-09-03T18:59:29.908Z,47.27
2022-09-03T19:02:17.650Z,48.26
2022-09-03T19:05:14.196Z,50.35
2022-09-03T19:08:16.263Z,50.53
2022-09-03T19:11:11.708Z,51.38
2022-09-03T19:14:00.313Z,52.57
2022-09-03T19:17:07.208Z,51.32
2022-09-03T19:20:09.213Z,53.03
2022-09-03T19:22:58.551Z,54.38
2022-09-03T19:25:47.985Z,52.58
2022-09-03T19:28:39.725Z,53.25
2022-09-03T19:31:35.585Z,55.41
2022-09-03T19:34:59.018Z,55.64
2022-09-03T19:37:56.248Z,56.54
2022-09-03T19:41:18.310Z,57.40
2022-09-03T19:44:08.447Z,56.61
2022-09-03T19:47:07.895Z,57.31
2022-09-03T19:50:21.137Z,57.68
2022-09-03T19:53:19.411Z,55.09
2022-09-03T19:56:14.632Z,54.03
2022-09-03T19:59:10.677Z,53.23
2022-09-03T20:01:58.110Z,53.67
2022-09-03T20:04:59.880Z,52.21
2022-09-03T20:07:47.070Z,51.72
2022-09-03T20:10:22.999Z,52.14
2022-09-03T20:12:58.492Z,52.73
2022-09-03T20:15:31.098Z,53.45
2022-09-03T20:18:18.109Z,54.81
2022-09-03T20:21:02.560Z,55.42
2022-09-03T20:23:54.289Z,55.82
2022-09-03T20:26:45.953Z,56.42
2022-09-03T20:29:27.256Z,56.77
2022-09-03T20:32:14.372Z,57.15
2022-09-03T20:34:58.912Z,57.79
2022-09-03T20:37:31.456Z,57.76
2022-09-03T20:40:06.188Z,58.30
2022-09-03T20:42:55.125Z,58.29
2022-09-03T20:45:27.228Z,59.47
2022-09-03T20:48:19.395Z,60.64
2022-09-03T20:51:01.205Z,60.98
2022-09-03T20:53:57.672Z,61.63
2022-09-03T20:56:36.258Z,61.69
2022-09-03T20:59:23.754Z,61.77
2022-09-03T21:01:56.299Z,61.58
2022-09-03T21:04:40.640Z,61.29
2022-09-03T21:07:15.797Z,61.35
2022-09-03T21:10:03.347Z,61.49
2022-09-03T21:12:35.931Z,62.70
2022-09-03T21:15:06.148Z,63.50
2022-09-03T21:17:54.891Z,63.32
2022-09-03T21:20:39.017Z,63.60
2022-09-03T21:23:34.859Z,64.17
2022-09-03T21:26:21.562Z,63.77
2022-09-03T21:29:00.017Z,63.85
2022-09-03T21:31:41.720Z,63.85
2022-09-03T21:34:14.288Z,64.34
2022-09-03T21:36:43.634Z,65.27
2022-09-03T21:39:31.222Z,65.07
2022-09-03T21:42:06.455Z,65.80
2022-09-03T21:44:44.635Z,65.63
2022-09-03T21:47:18.770Z,66.44
2022-09-03T21:50:03.272Z,66.53
2022-09-03T21:52:45.333Z,66.61
2022-09-03T21:55:32.846Z,67.15
2022-09-03T21:58:32.679Z,66.22
2022-09-03T22:01:07.935Z,67.05
2022-09-03T22:03:37.247Z,66.51
2022-09-03T22:06:09.678Z,66.98
2022-09-03T22:08:43.873Z,67.39
2022-09-03T22:11:33.188Z,67.64
2022-09-03T22:14:11.280Z,68.11
2022-09-03T22:16:55.803Z,68.34
2022-09-03T22:19:25.466Z,69.92
2022-09-03T22:21:59.850Z,70.49
2022-09-03T22:24:33.316Z,69.87
2022-09-03T22:27:12.237Z,70.87
2022-09-03T22:29:45.210Z,71.16
2022-09-03T22:32:26.443Z,71.14
2022-09-03T22:35:14.219Z,70.99
2022-09-03T22:37:58.657Z,71.20
2022-09-03T22:40:50.698Z,71.81
2022-09-03T22:43:41.421Z,71.64
2022-09-03T22:46:15.827Z,71.78
2022-09-03T22:49:13.913Z,71.13
2022-09-03T22:51:49.088Z,70.73
2022-09-03T22:54:48.666Z,70.45
2022-09-03T22:57:19.835Z,71.83
2022-09-03T22:59:58.267Z,72.83
2022-09-03T23:02:29.760Z,73.27
2022-09-03T23:05:17.703Z,73.50
2022-09-03T23:07:55.567Z,73.76
2022-09-03T23:10:44.065Z,73.73
2022-09-03T23:13:19.657Z,73.14
2022-09-03T23:15:52.346Z,73.87
2022-09-03T23:18:26.205Z,75.04
2022-09-03T23:21:20.289Z,75.19
2022-09-03T23:24:02.633Z,74.66
2022-09-03T23:26:43.985Z,74.87
2022-09-03T23:29:31.252Z,78.23
2022-09-03T23:32:01.427Z,77.82
2022-09-03T23:34:30.737Z,78.12
2022-09-03T23:37:40.049Z,76.73
2022-09-03T23:40:17.101Z,78.05
2022-09-03T23:43:19.631Z,78.89
2022-09-03T23:46:25.668Z,77.50
2022-09-03T23:49:13.274Z,77.25
2022-09-03T23:52:03.604Z,79.47
2022-09-03T23:54:57.148Z,79.56
2022-09-03T23:57:32.429Z,78.80
